Terminal Aerodrome Forecast
Issued by NWS

Home | Current Version | Previous Version | Text Only | Print | Product List | Glossary On
Versions: 1 2 3 4 5 6 7 8 9 10 11 12 13 14 15 16 17
000
FTUS42 KTBW 180200 AAB
TAFPGD
TAF AMD
KPGD 180212Z 1802/1824 08009KT P6SM BKN025
     FM181400 13010KT P6SM VCSH SCT015 BKN025
     FM181700 16014G22KT P6SM VCSH SCT015 BKN030
     FM182000 20014G22KT P6SM VCSH SCT015 BKN030=

USA.gov is the U.S. government's official web portal to all federal, state and local government web resources and services.